Hauptseite
METAR-TAF:

METAR-TAF

Flughäfen :

Flughafen Kigali

Kigali, Ruanda

Breite: 01-58S, Länge: 030-07E, Höhe: 1491 m

Beobachtung

Neuester Wetterbericht von vor 9 Stunden und 40 Minuten, um 21:00 UTC
Wind 5 kt aus Süd/Südwest
Temperatur 20°C
Luftfeuchtigkeit 53%
Luftdruck 1022 hPa
Sichtweite 10 km oder mehr
Leicht bewölkt in der Höhe von 2600 ft

METAR: HRYR 242100Z 20005KT 9999 FEW026 20/10 Q1022 NOSIG

Zeit: 08:40 (06:40 UTC)

Prognose

Neuester Wetterbericht von vor 1 Stunde und 40 Minuten, um 05:00 UTC
Gültige Prognose vom 25 um 06 UTC bis 26 um 12 UTC
Wind 10 kt aus Süd
Sichtweite 10 km oder mehr
Aufgelockert bewölkt in der Höhe von 2500 ft
Übergehend zu
vom 25 um 18 UTC bis 25 um 21 UTC
Leicht bewölkt in der Höhe von 2600 ft
Übergehend zu
vom 26 um 06 UTC bis 26 um 09 UTC
Wind 6 kt aus Süd/Südwest

TAF: HRYR 250500Z 2506/2612 18010KT 9999 SCT025 BECMG 2518/2521 FEW026 BECMG 2606/2609 21006KT

Wetterbeobachtungen und Prognosen von mehr als 4000 Flughäfen (METAR und TAF Bericht).

Die verfügbaren Stationen werden durch gelbe und rote Markierungen auf der Karte dargestellt.

Führen Sie die Maus auf sie, um den Namen der Station zu sehen.

Darauf klicken, um die Beobachtung von Wetterbeobachtungen und Prognosen zu sehen.

Um die Karte zu ändern : klicken Sie auf den grünen Tasten mit einem schwarzen Kreuz Zum Vergrößern, auf den grünen Button mit einem Gedankenstrich zu verkleinern, oder auf die grünen Pfeile für benachbarte Karten.


METAR-TAF: